sensor_id;sensor_type;location;lat;lon;timestamp;temperature;humidity
25939;DHT22;13739;51.172;4.466;2022-07-30T00:01:12;18.50;99.90
25939;DHT22;13739;51.172;4.466;2022-07-30T00:03:38;18.50;99.90
25939;DHT22;13739;51.172;4.466;2022-07-30T00:06:04;18.60;99.90
25939;DHT22;13739;51.172;4.466;2022-07-30T00:08:29;18.70;99.90
25939;DHT22;13739;51.172;4.466;2022-07-30T00:10:55;18.60;99.90
25939;DHT22;13739;51.172;4.466;2022-07-30T00:13:20;18.60;99.90
25939;DHT22;13739;51.172;4.466;2022-07-30T00:15:46;18.70;99.90
25939;DHT22;13739;51.172;4.466;2022-07-30T00:18:12;18.60;99.90
25939;DHT22;13739;51.172;4.466;2022-07-30T00:20:38;18.50;99.90
25939;DHT22;13739;51.172;4.466;2022-07-30T00:23:05;18.50;99.90
25939;DHT22;13739;51.172;4.466;2022-07-30T00:25:31;18.40;99.90
25939;DHT22;13739;51.172;4.466;2022-07-30T00:27:56;18.40;99.90
25939;DHT22;13739;51.172;4.466;2022-07-30T00:30:22;18.30;99.90
25939;DHT22;13739;51.172;4.466;2022-07-30T00:32:48;18.30;99.90
25939;DHT22;13739;51.172;4.466;2022-07-30T00:35:14;18.40;99.90
25939;DHT22;13739;51.172;4.466;2022-07-30T00:37:40;18.40;99.90
25939;DHT22;13739;51.172;4.466;2022-07-30T00:40:07;18.50;99.90
25939;DHT22;13739;51.172;4.466;2022-07-30T00:42:59;18.30;99.90
25939;DHT22;13739;51.172;4.466;2022-07-30T00:45:25;18.40;99.90
25939;DHT22;13739;51.172;4.466;2022-07-30T00:47:52;18.30;99.90
25939;DHT22;13739;51.172;4.466;2022-07-30T00:50:17;18.30;99.90
25939;DHT22;13739;51.172;4.466;2022-07-30T00:52:43;18.20;99.90
25939;DHT22;13739;51.172;4.466;2022-07-30T00:55:12;18.10;99.90
25939;DHT22;13739;51.172;4.466;2022-07-30T00:57:38;18.10;99.90
25939;DHT22;13739;51.172;4.466;2022-07-30T01:00:08;18.10;99.90
25939;DHT22;13739;51.172;4.466;2022-07-30T01:02:34;18.10;99.90
25939;DHT22;13739;51.172;4.466;2022-07-30T01:04:59;18.10;99.90
25939;DHT22;13739;51.172;4.466;2022-07-30T01:07:25;18.00;99.90
25939;DHT22;13739;51.172;4.466;2022-07-30T01:09:51;17.80;99.90
25939;DHT22;13739;51.172;4.466;2022-07-30T01:12:19;17.80;99.90
25939;DHT22;13739;51.172;4.466;2022-07-30T01:14:48;17.70;99.90
25939;DHT22;13739;51.172;4.466;2022-07-30T01:17:14;17.60;99.90
25939;DHT22;13739;51.172;4.466;2022-07-30T01:19:41;17.60;99.90
25939;DHT22;13739;51.172;4.466;2022-07-30T01:25:21;17.70;99.90
25939;DHT22;13739;51.172;4.466;2022-07-30T01:28:11;17.50;99.90
25939;DHT22;13739;51.172;4.466;2022-07-30T01:30:41;17.50;99.90
25939;DHT22;13739;51.172;4.466;2022-07-30T01:33:10;17.50;99.90
25939;DHT22;13739;51.172;4.466;2022-07-30T01:35:37;17.40;99.90
25939;DHT22;13739;51.172;4.466;2022-07-30T01:38:05;17.40;99.90
25939;DHT22;13739;51.172;4.466;2022-07-30T01:40:33;17.40;99.90
25939;DHT22;13739;51.172;4.466;2022-07-30T01:43:00;17.40;99.90
25939;DHT22;13739;51.172;4.466;2022-07-30T01:45:28;17.30;99.90
25939;DHT22;13739;51.172;4.466;2022-07-30T01:47:57;17.50;99.90
25939;DHT22;13739;51.172;4.466;2022-07-30T01:50:23;17.40;99.90
25939;DHT22;13739;51.172;4.466;2022-07-30T01:52:52;17.40;99.90
25939;DHT22;13739;51.172;4.466;2022-07-30T01:55:24;17.40;99.90
25939;DHT22;13739;51.172;4.466;2022-07-30T01:57:51;17.40;99.90
25939;DHT22;13739;51.172;4.466;2022-07-30T02:00:18;17.50;99.90
25939;DHT22;13739;51.172;4.466;2022-07-30T02:02:44;17.60;99.90
25939;DHT22;13739;51.172;4.466;2022-07-30T02:05:10;17.50;99.90
25939;DHT22;13739;51.172;4.466;2022-07-30T02:10:45;17.40;99.90
25939;DHT22;13739;51.172;4.466;2022-07-30T02:13:19;17.40;99.90
25939;DHT22;13739;51.172;4.466;2022-07-30T02:16:09;17.30;99.90
25939;DHT22;13739;51.172;4.466;2022-07-30T02:18:47;17.30;99.90
25939;DHT22;13739;51.172;4.466;2022-07-30T02:21:14;17.20;99.90
25939;DHT22;13739;51.172;4.466;2022-07-30T02:23:44;17.40;99.90
25939;DHT22;13739;51.172;4.466;2022-07-30T02:26:17;17.40;99.90
25939;DHT22;13739;51.172;4.466;2022-07-30T02:28:47;17.40;99.90
25939;DHT22;13739;51.172;4.466;2022-07-30T02:31:16;17.20;99.90
25939;DHT22;13739;51.172;4.466;2022-07-30T02:33:45;17.10;99.90
25939;DHT22;13739;51.172;4.466;2022-07-30T02:36:13;17.10;99.90
25939;DHT22;13739;51.172;4.466;2022-07-30T02:38:40;17.20;99.90
25939;DHT22;13739;51.172;4.466;2022-07-30T02:41:08;17.30;99.90
25939;DHT22;13739;51.172;4.466;2022-07-30T02:43:35;17.30;99.90
25939;DHT22;13739;51.172;4.466;2022-07-30T02:46:02;17.10;99.90
25939;DHT22;13739;51.172;4.466;2022-07-30T02:48:28;17.20;99.90
25939;DHT22;13739;51.172;4.466;2022-07-30T02:50:55;17.20;99.90
25939;DHT22;13739;51.172;4.466;2022-07-30T02:53:23;17.10;99.90
25939;DHT22;13739;51.172;4.466;2022-07-30T02:55:52;17.00;99.90
25939;DHT22;13739;51.172;4.466;2022-07-30T02:58:22;17.00;99.90
25939;DHT22;13739;51.172;4.466;2022-07-30T03:00:50;16.90;99.90
25939;DHT22;13739;51.172;4.466;2022-07-30T03:03:17;17.10;99.90
25939;DHT22;13739;51.172;4.466;2022-07-30T03:05:43;17.10;99.90
25939;DHT22;13739;51.172;4.466;2022-07-30T03:08:12;17.10;99.90
25939;DHT22;13739;51.172;4.466;2022-07-30T03:10:40;17.10;99.90
25939;DHT22;13739;51.172;4.466;2022-07-30T03:13:09;17.10;99.90
25939;DHT22;13739;51.172;4.466;2022-07-30T03:15:41;17.20;99.90
25939;DHT22;13739;51.172;4.466;2022-07-30T03:18:12;17.20;99.90
25939;DHT22;13739;51.172;4.466;2022-07-30T03:20:38;17.20;99.90
25939;DHT22;13739;51.172;4.466;2022-07-30T03:23:05;17.20;99.90
25939;DHT22;13739;51.172;4.466;2022-07-30T03:25:32;17.10;99.90
25939;DHT22;13739;51.172;4.466;2022-07-30T03:28:00;17.10;99.90
25939;DHT22;13739;51.172;4.466;2022-07-30T03:30:27;16.90;99.90
25939;DHT22;13739;51.172;4.466;2022-07-30T03:32:54;17.10;99.90
25939;DHT22;13739;51.172;4.466;2022-07-30T03:35:21;17.10;99.90
25939;DHT22;13739;51.172;4.466;2022-07-30T03:37:49;17.10;99.90
25939;DHT22;13739;51.172;4.466;2022-07-30T03:40:16;16.90;99.90
25939;DHT22;13739;51.172;4.466;2022-07-30T03:42:41;16.90;99.90
25939;DHT22;13739;51.172;4.466;2022-07-30T03:45:10;16.90;99.90
25939;DHT22;13739;51.172;4.466;2022-07-30T03:47:39;17.10;99.90
25939;DHT22;13739;51.172;4.466;2022-07-30T03:50:07;17.10;99.90
25939;DHT22;13739;51.172;4.466;2022-07-30T03:52:36;17.10;99.90
25939;DHT22;13739;51.172;4.466;2022-07-30T03:55:04;17.10;99.90
25939;DHT22;13739;51.172;4.466;2022-07-30T03:57:31;17.10;99.90
25939;DHT22;13739;51.172;4.466;2022-07-30T03:59:56;17.10;99.90
25939;DHT22;13739;51.172;4.466;2022-07-30T04:02:23;17.20;99.90
25939;DHT22;13739;51.172;4.466;2022-07-30T04:04:48;17.10;99.90
25939;DHT22;13739;51.172;4.466;2022-07-30T04:07:14;17.10;99.90
25939;DHT22;13739;51.172;4.466;2022-07-30T04:09:40;17.10;99.90
25939;DHT22;13739;51.172;4.466;2022-07-30T04:12:05;17.10;99.90
25939;DHT22;13739;51.172;4.466;2022-07-30T04:14:42;17.10;99.90
25939;DHT22;13739;51.172;4.466;2022-07-30T04:17:23;17.10;99.90
25939;DHT22;13739;51.172;4.466;2022-07-30T04:19:52;17.10;99.90
25939;DHT22;13739;51.172;4.466;2022-07-30T04:22:25;17.00;99.90
25939;DHT22;13739;51.172;4.466;2022-07-30T04:24:52;17.10;99.90
25939;DHT22;13739;51.172;4.466;2022-07-30T04:27:19;17.10;99.90
25939;DHT22;13739;51.172;4.466;2022-07-30T04:29:45;17.00;99.90
25939;DHT22;13739;51.172;4.466;2022-07-30T04:32:11;16.90;99.90
25939;DHT22;13739;51.172;4.466;2022-07-30T04:34:45;17.00;99.90
25939;DHT22;13739;51.172;4.466;2022-07-30T04:37:11;17.10;99.90
25939;DHT22;13739;51.172;4.466;2022-07-30T04:39:37;17.20;99.90
25939;DHT22;13739;51.172;4.466;2022-07-30T04:42:02;17.10;99.90
25939;DHT22;13739;51.172;4.466;2022-07-30T04:44:28;17.10;99.90
25939;DHT22;13739;51.172;4.466;2022-07-30T04:46:54;17.20;99.90
25939;DHT22;13739;51.172;4.466;2022-07-30T04:49:20;17.20;99.90
25939;DHT22;13739;51.172;4.466;2022-07-30T04:51:48;17.20;99.90
25939;DHT22;13739;51.172;4.466;2022-07-30T04:54:15;17.30;99.90
25939;DHT22;13739;51.172;4.466;2022-07-30T04:56:42;17.20;99.90
25939;DHT22;13739;51.172;4.466;2022-07-30T04:59:08;17.20;99.90
25939;DHT22;13739;51.172;4.466;2022-07-30T05:01:35;17.10;99.90
25939;DHT22;13739;51.172;4.466;2022-07-30T05:04:03;17.20;99.90
25939;DHT22;13739;51.172;4.466;2022-07-30T05:06:32;17.40;99.90
25939;DHT22;13739;51.172;4.466;2022-07-30T05:08:58;17.50;99.90
25939;DHT22;13739;51.172;4.466;2022-07-30T05:11:24;17.50;99.90
25939;DHT22;13739;51.172;4.466;2022-07-30T05:13:49;17.60;99.90
25939;DHT22;13739;51.172;4.466;2022-07-30T05:16:15;17.70;99.90
25939;DHT22;13739;51.172;4.466;2022-07-30T05:18:41;17.70;99.90
25939;DHT22;13739;51.172;4.466;2022-07-30T05:21:07;17.80;99.90
25939;DHT22;13739;51.172;4.466;2022-07-30T05:23:33;17.80;99.90
25939;DHT22;13739;51.172;4.466;2022-07-30T05:25:59;17.80;99.90
25939;DHT22;13739;51.172;4.466;2022-07-30T05:28:25;17.90;99.90
25939;DHT22;13739;51.172;4.466;2022-07-30T05:30:54;18.00;99.90
25939;DHT22;13739;51.172;4.466;2022-07-30T05:33:20;18.00;99.90
25939;DHT22;13739;51.172;4.466;2022-07-30T05:35:47;18.00;99.90
25939;DHT22;13739;51.172;4.466;2022-07-30T05:38:13;18.10;99.90
25939;DHT22;13739;51.172;4.466;2022-07-30T05:40:39;18.00;99.90
25939;DHT22;13739;51.172;4.466;2022-07-30T05:43:05;18.00;99.90
25939;DHT22;13739;51.172;4.466;2022-07-30T05:45:30;18.20;99.90
25939;DHT22;13739;51.172;4.466;2022-07-30T05:47:56;18.10;99.90
25939;DHT22;13739;51.172;4.466;2022-07-30T05:50:22;18.20;99.90
25939;DHT22;13739;51.172;4.466;2022-07-30T05:52:48;18.30;99.90
25939;DHT22;13739;51.172;4.466;2022-07-30T05:55:13;18.30;99.90
25939;DHT22;13739;51.172;4.466;2022-07-30T05:57:39;18.50;99.90
25939;DHT22;13739;51.172;4.466;2022-07-30T06:00:08;18.50;99.90
25939;DHT22;13739;51.172;4.466;2022-07-30T06:02:35;18.60;99.90
25939;DHT22;13739;51.172;4.466;2022-07-30T06:05:01;18.80;99.90
25939;DHT22;13739;51.172;4.466;2022-07-30T06:07:27;19.00;99.90
25939;DHT22;13739;51.172;4.466;2022-07-30T06:09:52;19.10;99.90
25939;DHT22;13739;51.172;4.466;2022-07-30T06:12:18;18.90;99.90
25939;DHT22;13739;51.172;4.466;2022-07-30T06:14:44;18.90;99.90
25939;DHT22;13739;51.172;4.466;2022-07-30T06:17:09;19.00;99.90
25939;DHT22;13739;51.172;4.466;2022-07-30T06:19:35;19.00;99.90
25939;DHT22;13739;51.172;4.466;2022-07-30T06:22:01;19.00;99.90
25939;DHT22;13739;51.172;4.466;2022-07-30T06:24:26;19.00;99.90
25939;DHT22;13739;51.172;4.466;2022-07-30T06:26:52;19.20;99.90
25939;DHT22;13739;51.172;4.466;2022-07-30T06:29:17;19.30;99.90
25939;DHT22;13739;51.172;4.466;2022-07-30T06:31:43;19.30;99.90
25939;DHT22;13739;51.172;4.466;2022-07-30T06:34:09;19.30;99.90
25939;DHT22;13739;51.172;4.466;2022-07-30T06:36:34;19.40;99.90
25939;DHT22;13739;51.172;4.466;2022-07-30T06:39:00;19.60;99.90
25939;DHT22;13739;51.172;4.466;2022-07-30T06:41:26;19.60;99.90
25939;DHT22;13739;51.172;4.466;2022-07-30T06:43:51;19.60;99.90
25939;DHT22;13739;51.172;4.466;2022-07-30T06:46:17;19.60;99.90
25939;DHT22;13739;51.172;4.466;2022-07-30T06:48:42;19.70;99.90
25939;DHT22;13739;51.172;4.466;2022-07-30T06:51:08;19.90;99.90
25939;DHT22;13739;51.172;4.466;2022-07-30T06:53:34;19.90;99.90
25939;DHT22;13739;51.172;4.466;2022-07-30T06:55:59;19.70;99.90
25939;DHT22;13739;51.172;4.466;2022-07-30T06:58:26;19.90;99.90
25939;DHT22;13739;51.172;4.466;2022-07-30T07:00:52;20.00;99.90
25939;DHT22;13739;51.172;4.466;2022-07-30T07:03:17;20.00;99.90
25939;DHT22;13739;51.172;4.466;2022-07-30T07:05:43;20.10;99.90
25939;DHT22;13739;51.172;4.466;2022-07-30T07:08:09;20.30;99.90
25939;DHT22;13739;51.172;4.466;2022-07-30T07:10:34;20.50;99.90
25939;DHT22;13739;51.172;4.466;2022-07-30T07:13:00;20.70;99.90
25939;DHT22;13739;51.172;4.466;2022-07-30T07:15:26;20.70;99.90
25939;DHT22;13739;51.172;4.466;2022-07-30T07:17:51;20.80;99.90
25939;DHT22;13739;51.172;4.466;2022-07-30T07:20:17;20.90;99.90
25939;DHT22;13739;51.172;4.466;2022-07-30T07:22:43;21.00;99.90
25939;DHT22;13739;51.172;4.466;2022-07-30T07:25:09;20.90;99.90
25939;DHT22;13739;51.172;4.466;2022-07-30T07:27:36;21.10;99.90
25939;DHT22;13739;51.172;4.466;2022-07-30T07:30:03;21.10;99.90
25939;DHT22;13739;51.172;4.466;2022-07-30T07:32:29;21.20;99.90
25939;DHT22;13739;51.172;4.466;2022-07-30T07:34:54;21.10;99.90
25939;DHT22;13739;51.172;4.466;2022-07-30T07:37:20;21.10;99.90
25939;DHT22;13739;51.172;4.466;2022-07-30T07:39:46;21.10;99.90
25939;DHT22;13739;51.172;4.466;2022-07-30T07:42:12;21.20;99.90
25939;DHT22;13739;51.172;4.466;2022-07-30T07:44:37;21.30;99.90
25939;DHT22;13739;51.172;4.466;2022-07-30T07:47:03;21.40;99.90
25939;DHT22;13739;51.172;4.466;2022-07-30T07:49:29;21.40;99.90
25939;DHT22;13739;51.172;4.466;2022-07-30T07:51:54;21.60;99.90
25939;DHT22;13739;51.172;4.466;2022-07-30T07:54:20;21.80;99.90
25939;DHT22;13739;51.172;4.466;2022-07-30T07:56:45;21.70;99.90
25939;DHT22;13739;51.172;4.466;2022-07-30T07:59:13;21.80;99.90
25939;DHT22;13739;51.172;4.466;2022-07-30T08:01:38;22.10;99.90
25939;DHT22;13739;51.172;4.466;2022-07-30T08:04:04;21.70;99.90
25939;DHT22;13739;51.172;4.466;2022-07-30T08:06:30;21.90;99.90
25939;DHT22;13739;51.172;4.466;2022-07-30T08:08:55;22.00;99.90
25939;DHT22;13739;51.172;4.466;2022-07-30T08:11:21;21.80;99.90
25939;DHT22;13739;51.172;4.466;2022-07-30T08:13:47;21.50;99.90
25939;DHT22;13739;51.172;4.466;2022-07-30T08:16:13;21.70;99.90
25939;DHT22;13739;51.172;4.466;2022-07-30T08:18:39;21.70;99.90
25939;DHT22;13739;51.172;4.466;2022-07-30T08:21:04;21.50;99.90
25939;DHT22;13739;51.172;4.466;2022-07-30T08:23:30;21.50;99.90
25939;DHT22;13739;51.172;4.466;2022-07-30T08:25:59;21.70;99.90
25939;DHT22;13739;51.172;4.466;2022-07-30T08:28:25;21.70;99.90
25939;DHT22;13739;51.172;4.466;2022-07-30T08:30:51;21.80;99.90
25939;DHT22;13739;51.172;4.466;2022-07-30T08:33:16;22.00;99.90
25939;DHT22;13739;51.172;4.466;2022-07-30T08:35:42;22.00;99.90
25939;DHT22;13739;51.172;4.466;2022-07-30T08:38:08;22.10;99.90
25939;DHT22;13739;51.172;4.466;2022-07-30T08:40:34;22.20;99.90
25939;DHT22;13739;51.172;4.466;2022-07-30T08:43:05;22.30;99.90
25939;DHT22;13739;51.172;4.466;2022-07-30T08:45:32;22.40;99.90
25939;DHT22;13739;51.172;4.466;2022-07-30T08:48:00;22.40;99.90
25939;DHT22;13739;51.172;4.466;2022-07-30T08:50:27;22.50;99.90
25939;DHT22;13739;51.172;4.466;2022-07-30T08:52:54;22.40;99.90
25939;DHT22;13739;51.172;4.466;2022-07-30T08:55:21;22.30;99.90
25939;DHT22;13739;51.172;4.466;2022-07-30T08:57:48;22.20;99.90
25939;DHT22;13739;51.172;4.466;2022-07-30T09:00:14;22.40;99.90
25939;DHT22;13739;51.172;4.466;2022-07-30T09:02:41;22.50;99.90
25939;DHT22;13739;51.172;4.466;2022-07-30T09:05:07;22.80;99.90
25939;DHT22;13739;51.172;4.466;2022-07-30T09:07:34;22.80;99.90
25939;DHT22;13739;51.172;4.466;2022-07-30T09:10:00;22.90;99.90
25939;DHT22;13739;51.172;4.466;2022-07-30T09:12:44;23.10;99.90
25939;DHT22;13739;51.172;4.466;2022-07-30T09:15:11;23.10;99.90
25939;DHT22;13739;51.172;4.466;2022-07-30T09:17:57;23.20;99.90
25939;DHT22;13739;51.172;4.466;2022-07-30T09:20:25;23.30;99.90
25939;DHT22;13739;51.172;4.466;2022-07-30T09:22:56;23.30;99.90
25939;DHT22;13739;51.172;4.466;2022-07-30T09:25:42;23.20;99.90
25939;DHT22;13739;51.172;4.466;2022-07-30T09:28:10;23.50;99.90
25939;DHT22;13739;51.172;4.466;2022-07-30T09:31:02;23.70;99.90
25939;DHT22;13739;51.172;4.466;2022-07-30T09:33:32;23.80;99.90
25939;DHT22;13739;51.172;4.466;2022-07-30T09:35:58;23.80;99.90
25939;DHT22;13739;51.172;4.466;2022-07-30T09:38:24;23.70;99.90
25939;DHT22;13739;51.172;4.466;2022-07-30T09:40:55;23.80;99.90
25939;DHT22;13739;51.172;4.466;2022-07-30T09:43:21;23.80;99.90
25939;DHT22;13739;51.172;4.466;2022-07-30T09:45:51;23.60;99.90
25939;DHT22;13739;51.172;4.466;2022-07-30T09:48:24;23.50;99.90
25939;DHT22;13739;51.172;4.466;2022-07-30T09:50:51;23.80;99.90
25939;DHT22;13739;51.172;4.466;2022-07-30T09:53:17;24.00;99.70
25939;DHT22;13739;51.172;4.466;2022-07-30T09:55:43;24.10;99.40
25939;DHT22;13739;51.172;4.466;2022-07-30T09:58:10;24.50;99.20
25939;DHT22;13739;51.172;4.466;2022-07-30T10:00:38;24.60;98.60
25939;DHT22;13739;51.172;4.466;2022-07-30T10:03:21;24.70;97.50
25939;DHT22;13739;51.172;4.466;2022-07-30T10:05:53;24.20;97.70
25939;DHT22;13739;51.172;4.466;2022-07-30T10:08:20;24.20;97.50
25939;DHT22;13739;51.172;4.466;2022-07-30T10:10:46;24.30;96.90
25939;DHT22;13739;51.172;4.466;2022-07-30T10:13:15;24.40;97.20
25939;DHT22;13739;51.172;4.466;2022-07-30T10:15:41;24.40;96.80
25939;DHT22;13739;51.172;4.466;2022-07-30T10:18:08;24.50;96.80
25939;DHT22;13739;51.172;4.466;2022-07-30T10:20:36;24.80;96.80
25939;DHT22;13739;51.172;4.466;2022-07-30T10:23:06;25.00;96.30
25939;DHT22;13739;51.172;4.466;2022-07-30T10:25:32;25.10;95.80
25939;DHT22;13739;51.172;4.466;2022-07-30T10:27:58;24.70;95.70
25939;DHT22;13739;51.172;4.466;2022-07-30T10:30:25;24.80;96.30
25939;DHT22;13739;51.172;4.466;2022-07-30T10:32:52;25.30;95.50
25939;DHT22;13739;51.172;4.466;2022-07-30T10:35:17;25.60;94.00
25939;DHT22;13739;51.172;4.466;2022-07-30T10:37:48;25.30;93.80
25939;DHT22;13739;51.172;4.466;2022-07-30T10:47:52;26.30;92.80
25939;DHT22;13739;51.172;4.466;2022-07-30T10:50:20;26.10;92.30
25939;DHT22;13739;51.172;4.466;2022-07-30T10:52:55;25.90;92.50
25939;DHT22;13739;51.172;4.466;2022-07-30T10:55:27;25.90;92.30
25939;DHT22;13739;51.172;4.466;2022-07-30T11:00:22;25.90;92.20
25939;DHT22;13739;51.172;4.466;2022-07-30T11:03:10;26.10;91.70
25939;DHT22;13739;51.172;4.466;2022-07-30T11:05:36;25.80;91.30
25939;DHT22;13739;51.172;4.466;2022-07-30T11:08:27;25.80;91.30
25939;DHT22;13739;51.172;4.466;2022-07-30T11:10:53;26.00;90.90
25939;DHT22;13739;51.172;4.466;2022-07-30T11:16:17;26.40;90.30
25939;DHT22;13739;51.172;4.466;2022-07-30T11:21:28;26.10;89.30
25939;DHT22;13739;51.172;4.466;2022-07-30T11:23:54;26.10;89.70
25939;DHT22;13739;51.172;4.466;2022-07-30T11:29:05;26.20;87.20
25939;DHT22;13739;51.172;4.466;2022-07-30T11:31:35;26.60;87.10
25939;DHT22;13739;51.172;4.466;2022-07-30T11:37:10;26.20;87.30
25939;DHT22;13739;51.172;4.466;2022-07-30T11:44:52;26.10;88.80
25939;DHT22;13739;51.172;4.466;2022-07-30T11:47:18;26.30;88.70
25939;DHT22;13739;51.172;4.466;2022-07-30T11:49:47;26.30;87.70
25939;DHT22;13739;51.172;4.466;2022-07-30T11:52:21;26.50;87.60
25939;DHT22;13739;51.172;4.466;2022-07-30T11:54:52;26.80;86.80
25939;DHT22;13739;51.172;4.466;2022-07-30T11:57:17;26.90;86.20
25939;DHT22;13739;51.172;4.466;2022-07-30T11:59:56;26.90;87.20
25939;DHT22;13739;51.172;4.466;2022-07-30T12:02:26;26.90;87.10
25939;DHT22;13739;51.172;4.466;2022-07-30T12:04:52;26.90;87.60
25939;DHT22;13739;51.172;4.466;2022-07-30T12:07:24;26.90;87.30
25939;DHT22;13739;51.172;4.466;2022-07-30T12:09:50;27.10;86.70
25939;DHT22;13739;51.172;4.466;2022-07-30T12:12:22;27.10;86.00
25939;DHT22;13739;51.172;4.466;2022-07-30T12:14:49;27.20;87.20
25939;DHT22;13739;51.172;4.466;2022-07-30T12:17:15;27.30;85.50
25939;DHT22;13739;51.172;4.466;2022-07-30T12:19:47;27.20;85.40
25939;DHT22;13739;51.172;4.466;2022-07-30T12:22:13;27.40;84.30
25939;DHT22;13739;51.172;4.466;2022-07-30T12:24:38;27.40;84.60
25939;DHT22;13739;51.172;4.466;2022-07-30T12:27:06;27.20;85.50
25939;DHT22;13739;51.172;4.466;2022-07-30T12:29:33;27.20;85.40
25939;DHT22;13739;51.172;4.466;2022-07-30T12:31:59;27.10;84.00
25939;DHT22;13739;51.172;4.466;2022-07-30T12:34:25;27.30;84.10
25939;DHT22;13739;51.172;4.466;2022-07-30T12:36:51;27.50;83.20
25939;DHT22;13739;51.172;4.466;2022-07-30T12:39:24;27.70;83.90
25939;DHT22;13739;51.172;4.466;2022-07-30T12:41:52;27.70;82.30
25939;DHT22;13739;51.172;4.466;2022-07-30T12:44:40;27.70;82.10
25939;DHT22;13739;51.172;4.466;2022-07-30T12:49:48;28.10;82.00
25939;DHT22;13739;51.172;4.466;2022-07-30T12:52:24;28.00;82.20
25939;DHT22;13739;51.172;4.466;2022-07-30T12:57:27;28.20;79.70
25939;DHT22;13739;51.172;4.466;2022-07-30T13:00:20;28.20;81.30
25939;DHT22;13739;51.172;4.466;2022-07-30T13:02:46;27.90;80.10
25939;DHT22;13739;51.172;4.466;2022-07-30T13:05:12;27.90;82.10
25939;DHT22;13739;51.172;4.466;2022-07-30T13:07:58;27.60;82.20
25939;DHT22;13739;51.172;4.466;2022-07-30T13:10:24;27.20;81.20
25939;DHT22;13739;51.172;4.466;2022-07-30T13:12:49;27.20;80.90
25939;DHT22;13739;51.172;4.466;2022-07-30T13:15:20;27.30;81.00
25939;DHT22;13739;51.172;4.466;2022-07-30T13:17:46;27.60;79.70
25939;DHT22;13739;51.172;4.466;2022-07-30T13:20:13;27.40;79.70
25939;DHT22;13739;51.172;4.466;2022-07-30T13:22:40;27.40;79.00
25939;DHT22;13739;51.172;4.466;2022-07-30T13:25:06;27.30;78.70
25939;DHT22;13739;51.172;4.466;2022-07-30T13:27:31;27.20;79.30
25939;DHT22;13739;51.172;4.466;2022-07-30T13:29:57;27.50;78.60
25939;DHT22;13739;51.172;4.466;2022-07-30T13:32:23;27.60;78.30
25939;DHT22;13739;51.172;4.466;2022-07-30T13:34:48;27.50;78.20
25939;DHT22;13739;51.172;4.466;2022-07-30T13:37:14;27.40;78.10
25939;DHT22;13739;51.172;4.466;2022-07-30T13:39:39;27.40;78.00
25939;DHT22;13739;51.172;4.466;2022-07-30T13:42:05;27.40;78.50
25939;DHT22;13739;51.172;4.466;2022-07-30T13:44:31;27.40;77.50
25939;DHT22;13739;51.172;4.466;2022-07-30T13:46:56;27.50;78.10
25939;DHT22;13739;51.172;4.466;2022-07-30T13:49:22;27.50;78.60
25939;DHT22;13739;51.172;4.466;2022-07-30T13:51:47;27.60;78.80
25939;DHT22;13739;51.172;4.466;2022-07-30T13:54:13;27.90;76.90
25939;DHT22;13739;51.172;4.466;2022-07-30T13:56:39;28.00;75.70
25939;DHT22;13739;51.172;4.466;2022-07-30T13:59:04;27.90;76.10
25939;DHT22;13739;51.172;4.466;2022-07-30T14:01:30;27.90;76.50
25939;DHT22;13739;51.172;4.466;2022-07-30T14:03:56;28.20;76.30
25939;DHT22;13739;51.172;4.466;2022-07-30T14:06:22;28.30;75.20
25939;DHT22;13739;51.172;4.466;2022-07-30T14:08:47;28.30;75.30
25939;DHT22;13739;51.172;4.466;2022-07-30T14:11:13;28.10;76.60
25939;DHT22;13739;51.172;4.466;2022-07-30T14:13:40;28.60;76.50
25939;DHT22;13739;51.172;4.466;2022-07-30T14:16:05;28.40;75.80
25939;DHT22;13739;51.172;4.466;2022-07-30T14:18:31;28.30;78.00
25939;DHT22;13739;51.172;4.466;2022-07-30T14:20:57;28.30;77.00
25939;DHT22;13739;51.172;4.466;2022-07-30T14:23:22;27.90;76.60
25939;DHT22;13739;51.172;4.466;2022-07-30T14:25:48;28.20;76.10
25939;DHT22;13739;51.172;4.466;2022-07-30T14:28:14;28.60;74.70
25939;DHT22;13739;51.172;4.466;2022-07-30T14:30:40;28.80;74.80
25939;DHT22;13739;51.172;4.466;2022-07-30T14:33:05;28.90;75.00
25939;DHT22;13739;51.172;4.466;2022-07-30T14:35:31;29.00;74.70
25939;DHT22;13739;51.172;4.466;2022-07-30T14:37:57;28.60;73.50
25939;DHT22;13739;51.172;4.466;2022-07-30T14:40:22;28.60;73.90
25939;DHT22;13739;51.172;4.466;2022-07-30T14:42:48;28.30;74.90
25939;DHT22;13739;51.172;4.466;2022-07-30T14:45:14;28.40;75.60
25939;DHT22;13739;51.172;4.466;2022-07-30T14:47:40;28.70;74.50
25939;DHT22;13739;51.172;4.466;2022-07-30T14:50:06;28.70;73.90
25939;DHT22;13739;51.172;4.466;2022-07-30T14:52:34;28.30;75.00
25939;DHT22;13739;51.172;4.466;2022-07-30T14:55:06;28.50;73.50
25939;DHT22;13739;51.172;4.466;2022-07-30T14:57:32;28.10;75.00
25939;DHT22;13739;51.172;4.466;2022-07-30T14:59:58;28.30;74.30
25939;DHT22;13739;51.172;4.466;2022-07-30T15:02:24;28.00;75.40
25939;DHT22;13739;51.172;4.466;2022-07-30T15:04:49;28.00;76.50
25939;DHT22;13739;51.172;4.466;2022-07-30T15:07:15;28.10;74.50
25939;DHT22;13739;51.172;4.466;2022-07-30T15:09:41;28.20;73.10
25939;DHT22;13739;51.172;4.466;2022-07-30T15:12:07;28.00;74.50
25939;DHT22;13739;51.172;4.466;2022-07-30T15:14:39;27.90;73.20
25939;DHT22;13739;51.172;4.466;2022-07-30T15:17:06;28.10;74.30
25939;DHT22;13739;51.172;4.466;2022-07-30T15:19:32;28.10;73.80
25939;DHT22;13739;51.172;4.466;2022-07-30T15:21:58;28.00;74.10
25939;DHT22;13739;51.172;4.466;2022-07-30T15:24:26;28.30;74.50
25939;DHT22;13739;51.172;4.466;2022-07-30T15:26:52;28.30;74.40
25939;DHT22;13739;51.172;4.466;2022-07-30T15:29:19;28.30;72.80
25939;DHT22;13739;51.172;4.466;2022-07-30T15:31:44;28.20;73.40
25939;DHT22;13739;51.172;4.466;2022-07-30T15:34:10;28.20;72.00
25939;DHT22;13739;51.172;4.466;2022-07-30T15:36:37;28.10;72.70
25939;DHT22;13739;51.172;4.466;2022-07-30T15:39:06;28.10;72.70
25939;DHT22;13739;51.172;4.466;2022-07-30T15:41:32;28.10;73.30
25939;DHT22;13739;51.172;4.466;2022-07-30T15:43:58;28.10;71.30
25939;DHT22;13739;51.172;4.466;2022-07-30T15:46:23;28.10;70.90
25939;DHT22;13739;51.172;4.466;2022-07-30T15:48:49;28.00;70.40
25939;DHT22;13739;51.172;4.466;2022-07-30T15:51:15;27.40;71.60
25939;DHT22;13739;51.172;4.466;2022-07-30T15:53:41;27.20;73.40
25939;DHT22;13739;51.172;4.466;2022-07-30T15:56:06;27.20;73.40
25939;DHT22;13739;51.172;4.466;2022-07-30T15:58:32;27.20;73.20
25939;DHT22;13739;51.172;4.466;2022-07-30T16:00:58;27.40;73.20
25939;DHT22;13739;51.172;4.466;2022-07-30T16:03:23;27.40;73.70
25939;DHT22;13739;51.172;4.466;2022-07-30T16:05:49;27.30;76.60
25939;DHT22;13739;51.172;4.466;2022-07-30T16:08:15;27.30;73.20
25939;DHT22;13739;51.172;4.466;2022-07-30T16:10:40;27.40;72.40